This is the latest recevied weather packets stored in our database for station/object R6DH-11. If no packets are shown the sender has not sent any weather packets the latest 10 day(s).
| Time | Temp. | Humidity | Pressure | Rain* | Wind** | Luminosity | Snow |
|---|---|---|---|---|---|---|---|
| 1777398724 | 8.33° C | 56% | 1017.5 hPa | - | - | - | - |
| 1777397823 | 7.78° C | 55% | 1017.4 hPa | - | - | - | - |
| 1777396923 | 8.33° C | 55% | 1017.4 hPa | - | - | - | - |
| 1777396023 | 8.89° C | 54% | 1017.3 hPa | - | - | - | - |
| 1777395123 | 10° C | 48% | 1017.1 hPa | - | - | - | - |
| 1777394223 | 11.11° C | 42% | 1017 hPa | - | - | - | - |
| 1777393323 | 11.67° C | 41% | 1016.9 hPa | - | - | - | - |
| 1777392423 | 12.22° C | 38% | 1016.8 hPa | - | - | - | - |
| 1777391523 | 13.33° C | 36% | 1016.8 hPa | - | - | - | - |
| 1777390622 | 13.33° C | 36% | 1016.7 hPa | - | - | - | - |
| 1777389722 | 13.89° C | 34% | 1015.6 hPa | - | - | - | - |
| 1777388822 | 14.44° C | 33% | 1016.6 hPa | - | - | - | - |
| 1777387922 | 14.44° C | 34% | 1016.7 hPa | - | - | - | - |
| 1777387022 | 14.44° C | 32% | 1016.8 hPa | - | - | - | - |
| 1777386122 | 15.56° C | 29% | 1016.7 hPa | - | - | - | - |
| 1777385222 | 16.11° C | 28% | 1016.7 hPa | - | - | - | - |
| 1777384322 | 16.67° C | 27% | 1016.6 hPa | - | - | - | - |
| 1777383422 | 16.67° C | 27% | 1016.6 hPa | - | - | - | - |
| 1777383316 | 17.22° C | 27% | 1016.6 hPa | - | - | - | - |
| 1777374309 | 16.67° C | 27% | 1017.6 hPa | - | - | - | - |
| 1777373409 | 16.67° C | 27% | 1017.8 hPa | - | - | - | - |
| 1777372509 | 16.11° C | 26% | 1017.9 hPa | - | - | - | - |
| 1777371608 | 16.11° C | 26% | 1018.2 hPa | - | - | - | - |
| 1777370708 | 20.56° C | 21% | 1018.2 hPa | - | - | - | - |
| 1777369808 | 15.56° C | 27% | 1018.3 hPa | - | - | - | - |
* Rain since midnight (hover to see other rain measurements)
** Current wind speed in m/s (hover to see current wind gust speed)